Página principal
METAR-TAF:

METAR-TAF

Aeroportos :

Aeroporto Internacional de Lárnaca

Larnaca, Chipre

latitude: 34-53N, longitude: 033-38E, altura: 2 m

Observação actual do tempo

O boletim foi feito há 21 minutos, às 09:30 UTC
Vento 9 kt de sudeste
Temperatura 26°C
Humidade 58%
Pressão 1011 hPa
Visibilidade 10 km ou mais
Poucas nuvensa uma altura de 2500 ft

METAR: LCLK 270930Z 13009KT 9999 FEW025 26/17 Q1011 NOSIG

Hora: 12:51 (09:51 UTC)

Previsão

O boletim foi feito há 4 horas e 21 minutos, às 05:30 UTC
Previsão válida de 27 às 06 UTC a 28 às 06 UTC
Vento 7 kt de es-nordeste
Visibilidade 10 km ou mais
Poucas nuvensa uma altura de 3000 ft
Tornando-se
de 27 às 09 UTC a 27 às 12 UTC
Vento 12 kt de su-sudoeste
Tornando-se
de 27 às 17 UTC a 27 às 20 UTC
Vento 7 kt de nor-noroeste

TAF: LCLK 270530Z 2706/2806 06007KT 9999 FEW030 BECMG 2709/2712 21012KT BECMG 2717/2720 33007KT

Observações e previsões do tempo de mais de 4000 aeroportos (mensagens METAR e TAF).

As estações disponíveis são os pontos amarelos e vermelhos sobre o mapa.

Mova o rato sobre o mapa para ver o nome da estação.

Depois clique no ponto para visualizar as observações e previsões meteorológicas.

Para alterar o mapa : clique nos botões verdes com uma cruz preta para aumentar o zoom; no botão verde com uma pitada de zoom; ou nas setas verdes para mapas adjacentes.


METAR-TAF: